Time;durP1;ratioP1;P1;durP2;ratioP2;P2;SDS_P1;SDS_P2;PMS_P1;PMS_P2;Temp;Humidity;BMP_temperature;BMP_pressure;BME280_temperature;BME280_humidity;BME280_pressure;Samples;Min_cycle;Max_cycle;Signal;HPM_P1;HPM_P2
2021/04/28 00:01:06;;;;;;;9.50;4.50;;;5.00;65.10;;;;;;5062145;28;20032;-79
2021/04/28 00:03:32;;;;;;;7.22;4.60;;;5.00;65.30;;;;;;5088458;28;20361;-79
2021/04/28 00:05:58;;;;;;;9.38;5.07;;;5.00;65.90;;;;;;5077064;28;20032;-79
2021/04/28 00:08:23;;;;;;;9.18;4.88;;;4.90;64.70;;;;;;5078010;28;20032;-78
2021/04/28 00:10:50;;;;;;;7.60;4.90;;;4.90;64.90;;;;;;5074976;28;20503;-80
2021/04/28 00:13:17;;;;;;;8.68;4.68;;;4.80;64.70;;;;;;5055017;28;20028;-78
2021/04/28 00:15:46;;;;;;;9.18;4.95;;;4.80;64.50;;;;;;5078154;28;20135;-78
2021/04/28 00:18:14;;;;;;;8.15;4.75;;;4.70;64.50;;;;;;5070517;28;20303;-79
2021/04/28 00:20:41;;;;;;;8.30;4.82;;;4.70;64.30;;;;;;5072041;28;20029;-80
2021/04/28 00:23:08;;;;;;;8.00;5.00;;;4.60;64.80;;;;;;5069121;28;20040;-77
2021/04/28 00:25:36;;;;;;;9.38;5.10;;;4.70;64.60;;;;;;5097357;27;20400;-77
2021/04/28 00:28:02;;;;;;;6.40;4.65;;;4.60;64.60;;;;;;5058741;28;20373;-79
2021/04/28 00:30:28;;;;;;;11.38;5.13;;;4.60;64.50;;;;;;5073675;28;20032;-80
2021/04/28 00:32:55;;;;;;;9.65;4.97;;;4.50;64.30;;;;;;5069186;28;20499;-77
2021/04/28 00:35:21;;;;;;;9.05;4.93;;;4.50;64.40;;;;;;5072158;28;20108;-79
2021/04/28 00:37:48;;;;;;;8.68;5.65;;;4.50;64.50;;;;;;5069098;28;20362;-80
2021/04/28 00:40:34;;;;;;;7.63;4.93;;;4.40;64.10;;;;;;5066571;28;20040;-79
2021/04/28 00:43:01;;;;;;;10.38;5.20;;;4.40;64.60;;;;;;5066061;28;20043;-79
2021/04/28 00:45:28;;;;;;;11.88;5.60;;;4.40;65.00;;;;;;5064746;28;20044;-77
2021/04/28 00:47:55;;;;;;;8.32;4.65;;;4.50;64.30;;;;;;5056822;28;20043;-78
2021/04/28 00:50:27;;;;;;;8.70;5.20;;;4.40;64.40;;;;;;5075692;28;20398;-79
2021/04/28 00:52:54;;;;;;;11.55;5.90;;;4.40;64.70;;;;;;5072829;28;20024;-79
2021/04/28 00:55:20;;;;;;;13.07;5.45;;;4.40;64.40;;;;;;5072599;28;20490;-78
2021/04/28 00:57:46;;;;;;;6.90;5.20;;;4.30;64.10;;;;;;5076828;28;20032;-77
2021/04/28 01:00:15;;;;;;;9.57;4.85;;;4.40;64.30;;;;;;5075238;28;20070;-79
2021/04/28 01:02:42;;;;;;;8.20;4.80;;;4.30;63.90;;;;;;5091520;28;20063;-80
2021/04/28 01:05:09;;;;;;;9.80;5.18;;;4.30;63.40;;;;;;5060379;28;20036;-78
2021/04/28 01:07:36;;;;;;;9.52;5.03;;;4.30;63.60;;;;;;5075609;28;20028;-80
2021/04/28 01:10:06;;;;;;;7.47;4.90;;;4.30;63.90;;;;;;5079708;28;20028;-80
2021/04/28 01:12:32;;;;;;;7.75;4.57;;;4.30;63.90;;;;;;5063728;28;20044;-78
2021/04/28 01:15:00;;;;;;;7.63;4.80;;;4.30;63.70;;;;;;5065142;28;20474;-77
2021/04/28 01:17:26;;;;;;;8.65;5.28;;;4.30;63.70;;;;;;5056731;28;20097;-79
2021/04/28 01:19:53;;;;;;;9.15;5.20;;;4.30;63.80;;;;;;5084775;28;20462;-77
2021/04/28 01:22:21;;;;;;;7.82;5.18;;;4.30;63.60;;;;;;5076578;28;20196;-79
2021/04/28 01:24:49;;;;;;;15.63;5.45;;;4.30;63.60;;;;;;5086416;28;20494;-78
2021/04/28 01:27:21;;;;;;;8.90;5.32;;;4.30;63.40;;;;;;5073112;28;20036;-79
2021/04/28 01:29:47;;;;;;;12.13;5.20;;;4.30;63.40;;;;;;5075146;28;20056;-78
2021/04/28 01:32:19;;;;;;;9.25;4.97;;;4.20;63.10;;;;;;5058311;28;20123;-77
2021/04/28 01:34:47;;;;;;;12.47;4.80;;;4.20;63.40;;;;;;5074859;28;20090;-79
2021/04/28 01:37:13;;;;;;;10.20;4.85;;;4.30;63.10;;;;;;5069722;28;20784;-79
2021/04/28 01:39:42;;;;;;;7.65;4.70;;;4.20;63.40;;;;;;5075596;28;20505;-78
2021/04/28 01:42:09;;;;;;;13.38;4.65;;;4.20;63.10;;;;;;5063409;28;20060;-79
2021/04/28 01:44:36;;;;;;;8.90;4.70;;;4.20;63.30;;;;;;5069898;28;20033;-79
2021/04/28 01:47:03;;;;;;;10.30;5.18;;;4.10;62.80;;;;;;5064375;28;20119;-78
2021/04/28 01:49:31;;;;;;;10.85;4.13;;;4.10;63.30;;;;;;5077293;28;20098;-79
2021/04/28 01:51:57;;;;;;;8.60;4.63;;;4.10;63.10;;;;;;5059482;28;20040;-80
2021/04/28 01:54:23;;;;;;;6.88;4.35;;;4.00;63.30;;;;;;5072293;28;20545;-79
2021/04/28 01:56:51;;;;;;;7.82;4.30;;;4.10;63.40;;;;;;5067911;28;20059;-79
2021/04/28 01:59:20;;;;;;;6.57;4.20;;;4.10;63.70;;;;;;5072347;28;20060;-79
2021/04/28 02:01:52;;;;;;;9.23;4.28;;;4.10;63.50;;;;;;5063599;28;20555;-78
2021/04/28 02:04:19;;;;;;;7.82;4.47;;;4.00;63.50;;;;;;5079242;28;20048;-78
2021/04/28 02:06:45;;;;;;;7.88;4.40;;;4.00;63.70;;;;;;5069622;28;20250;-80
2021/04/28 02:09:11;;;;;;;7.25;4.28;;;4.00;63.20;;;;;;5055085;28;20200;-79
2021/04/28 02:11:37;;;;;;;6.18;4.10;;;3.90;63.60;;;;;;5102984;27;20111;-80
2021/04/28 02:14:05;;;;;;;11.25;4.55;;;3.90;63.70;;;;;;5073990;28;20032;-80
2021/04/28 02:16:39;;;;;;;8.57;4.45;;;3.90;63.80;;;;;;5081790;28;20062;-78
2021/04/28 02:19:08;;;;;;;8.40;4.32;;;3.90;63.80;;;;;;5073770;28;20300;-79
2021/04/28 02:21:39;;;;;;;7.53;4.53;;;3.80;63.40;;;;;;5078272;28;20032;-80
2021/04/28 02:24:07;;;;;;;9.68;4.75;;;3.80;63.40;;;;;;5065524;28;20039;-77
2021/04/28 02:26:33;;;;;;;10.18;4.22;;;3.80;63.60;;;;;;5072261;28;20092;-79
2021/04/28 02:28:59;;;;;;;7.07;4.35;;;3.80;63.70;;;;;;5070539;28;20036;-77
2021/04/28 02:31:25;;;;;;;7.65;3.88;;;3.70;63.90;;;;;;5062518;28;20044;-77
2021/04/28 02:33:50;;;;;;;7.88;4.00;;;3.80;64.30;;;;;;5072661;28;20047;-79
2021/04/28 02:36:17;;;;;;;6.25;3.85;;;3.70;64.00;;;;;;5079573;28;20478;-79
2021/04/28 02:39:01;;;;;;;7.70;3.83;;;3.80;64.50;;;;;;5077729;28;20035;-78
2021/04/28 02:41:26;;;;;;;6.28;3.92;;;3.60;64.90;;;;;;5079113;28;20064;-79
2021/04/28 02:43:53;;;;;;;6.72;3.95;;;3.60;64.40;;;;;;5078384;28;20064;-79
2021/04/28 02:46:20;;;;;;;8.10;4.07;;;3.60;64.40;;;;;;5067784;28;20055;-80
2021/04/28 02:48:51;;;;;;;5.07;3.75;;;3.50;64.60;;;;;;5069084;28;20032;-76
2021/04/28 02:51:16;;;;;;;6.13;4.00;;;3.60;64.90;;;;;;5070336;28;20783;-78
2021/04/28 02:53:45;;;;;;;5.65;3.67;;;3.50;65.00;;;;;;5082214;28;20044;-80
2021/04/28 02:56:12;;;;;;;8.77;3.80;;;3.50;65.00;;;;;;5071312;28;20029;-80
2021/04/28 02:58:39;;;;;;;9.60;3.85;;;3.40;65.20;;;;;;5068896;28;20032;-77
2021/04/28 03:01:06;;;;;;;7.00;3.95;;;3.40;65.70;;;;;;5054751;28;20032;-77
2021/04/28 03:03:38;;;;;;;5.78;3.58;;;3.30;65.70;;;;;;5056439;28;20654;-77
2021/04/28 03:06:04;;;;;;;8.25;3.83;;;3.40;65.40;;;;;;5074515;28;20031;-76
2021/04/28 03:08:30;;;;;;;9.10;3.67;;;3.30;65.70;;;;;;5072134;28;20078;-80
2021/04/28 03:10:58;;;;;;;12.60;4.03;;;3.30;65.60;;;;;;5068026;28;20040;-79
2021/04/28 03:13:23;;;;;;;5.25;3.30;;;3.30;65.90;;;;;;5039605;28;20040;-77
2021/04/28 03:15:49;;;;;;;8.18;3.22;;;3.20;65.50;;;;;;5068273;28;20036;-78
2021/04/28 03:18:16;;;;;;;5.13;3.25;;;3.20;65.80;;;;;;5075324;28;20058;-80
2021/04/28 03:20:46;;;;;;;8.30;3.45;;;3.20;65.30;;;;;;5073357;28;21006;-80
2021/04/28 03:23:12;;;;;;;7.10;3.30;;;3.10;65.70;;;;;;5064527;28;20046;-76
2021/04/28 03:25:40;;;;;;;5.30;3.20;;;3.10;65.50;;;;;;5065501;28;20033;-77
2021/04/28 03:28:06;;;;;;;5.63;2.90;;;3.10;65.40;;;;;;5071141;28;20039;-80
2021/04/28 03:30:31;;;;;;;4.55;3.33;;;3.10;65.50;;;;;;5071764;28;20158;-80
2021/04/28 03:32:57;;;;;;;5.75;3.45;;;3.10;65.60;;;;;;5052446;28;20032;-79
2021/04/28 03:35:23;;;;;;;5.60;3.08;;;3.10;65.80;;;;;;5086566;28;20513;-78
2021/04/28 03:37:49;;;;;;;8.25;3.47;;;3.00;65.60;;;;;;5079699;28;20148;-80
2021/04/28 03:40:15;;;;;;;11.45;3.60;;;3.00;65.50;;;;;;5082820;28;20040;-79
2021/04/28 03:42:40;;;;;;;6.57;3.47;;;2.90;65.80;;;;;;5083273;28;20047;-79
2021/04/28 03:45:07;;;;;;;5.63;3.00;;;2.90;66.40;;;;;;5087385;28;20036;-77
2021/04/28 03:47:33;;;;;;;5.53;3.25;;;2.90;65.90;;;;;;5080585;28;20059;-78
2021/04/28 03:49:59;;;;;;;9.32;3.67;;;2.90;65.70;;;;;;5069077;28;20059;-79
2021/04/28 03:52:26;;;;;;;14.23;3.47;;;2.90;66.00;;;;;;5062999;28;20063;-78
2021/04/28 03:54:52;;;;;;;6.22;3.58;;;2.90;66.20;;;;;;5081122;28;20060;-77
2021/04/28 03:57:18;;;;;;;7.88;3.10;;;2.90;66.00;;;;;;5049988;28;20040;-77
2021/04/28 03:59:44;;;;;;;5.63;3.65;;;2.80;66.60;;;;;;5065954;28;20450;-79
2021/04/28 04:02:09;;;;;;;9.02;3.72;;;2.90;66.10;;;;;;5095861;27;20682;-79
2021/04/28 04:04:35;;;;;;;5.63;3.08;;;2.80;66.60;;;;;;5066846;28;20063;-79
2021/04/28 04:07:01;;;;;;;5.15;3.08;;;2.90;66.30;;;;;;5058800;28;20063;-79
2021/04/28 04:09:27;;;;;;;6.00;3.33;;;2.90;66.20;;;;;;5070355;28;20067;-77
2021/04/28 04:11:53;;;;;;;5.38;3.10;;;2.90;66.40;;;;;;5076588;28;20119;-79
2021/04/28 04:14:19;;;;;;;7.35;3.67;;;2.90;66.70;;;;;;5075119;28;20123;-80
2021/04/28 04:16:46;;;;;;;5.40;3.30;;;3.00;66.60;;;;;;5049175;28;20121;-79
2021/04/28 04:19:12;;;;;;;6.65;3.17;;;2.80;66.80;;;;;;5079855;28;20032;-80
2021/04/28 04:21:39;;;;;;;4.97;3.10;;;2.90;66.80;;;;;;5085554;28;20035;-79
2021/04/28 04:24:06;;;;;;;9.18;3.25;;;2.90;66.90;;;;;;5073246;28;20250;-79
2021/04/28 04:26:32;;;;;;;5.22;3.13;;;2.90;67.20;;;;;;5069650;28;20032;-80
2021/04/28 04:28:57;;;;;;;8.13;3.30;;;2.90;67.00;;;;;;5048307;28;20762;-80
2021/04/28 04:31:23;;;;;;;6.18;3.38;;;2.90;66.90;;;;;;5066379;28;20039;-78
2021/04/28 04:33:49;;;;;;;6.25;3.63;;;2.90;67.30;;;;;;5077147;28;20024;-79
2021/04/28 04:36:15;;;;;;;5.35;3.47;;;3.00;67.20;;;;;;5068055;28;20044;-79
2021/04/28 04:38:40;;;;;;;5.82;3.08;;;3.00;67.00;;;;;;5075604;28;20115;-80
2021/04/28 04:41:06;;;;;;;5.22;3.20;;;2.90;67.40;;;;;;5065694;28;20046;-77
2021/04/28 04:43:32;;;;;;;5.78;3.13;;;2.90;67.70;;;;;;5056388;28;20052;-78
2021/04/28 04:45:58;;;;;;;6.35;3.38;;;2.90;67.70;;;;;;5067627;28;20953;-78
2021/04/28 04:48:24;;;;;;;9.15;3.40;;;2.90;67.60;;;;;;5044666;28;20043;-78
2021/04/28 04:50:49;;;;;;;6.13;3.05;;;3.00;67.80;;;;;;5074417;28;20043;-77
2021/04/28 04:53:15;;;;;;;9.77;3.50;;;3.10;67.50;;;;;;5076067;28;20040;-77
2021/04/28 04:55:42;;;;;;;5.65;3.60;;;3.10;67.60;;;;;;5071483;28;21479;-79
2021/04/28 04:58:07;;;;;;;6.03;3.22;;;3.10;68.10;;;;;;5066203;28;20032;-76
2021/04/28 05:00:33;;;;;;;4.40;3.33;;;3.20;67.70;;;;;;5066566;28;20286;-78
2021/04/28 05:02:59;;;;;;;6.07;3.78;;;3.20;68.20;;;;;;5066944;28;20049;-77
2021/04/28 05:05:25;;;;;;;5.28;3.97;;;3.20;68.00;;;;;;5075631;28;20127;-79
2021/04/28 05:07:52;;;;;;;6.18;3.78;;;3.30;67.90;;;;;;5070077;28;20393;-76
2021/04/28 05:10:19;;;;;;;7.78;3.40;;;3.20;68.70;;;;;;5072470;28;20059;-79
2021/04/28 05:12:47;;;;;;;7.20;3.90;;;3.30;68.30;;;;;;5081499;28;20043;-80
2021/04/28 05:15:15;;;;;;;13.07;4.72;;;3.30;67.90;;;;;;5077116;28;20074;-78
2021/04/28 05:17:42;;;;;;;7.35;3.83;;;3.30;68.10;;;;;;5073432;28;20036;-77
2021/04/28 05:20:09;;;;;;;8.00;3.83;;;3.40;68.00;;;;;;5072238;28;20084;-79
2021/04/28 05:22:36;;;;;;;10.38;4.22;;;3.40;68.00;;;;;;5074845;28;20502;-77
2021/04/28 05:25:03;;;;;;;6.53;3.72;;;3.50;68.20;;;;;;5079033;28;20086;-77
2021/04/28 05:27:28;;;;;;;8.25;3.97;;;3.50;68.00;;;;;;5043245;28;20067;-78
2021/04/28 05:29:54;;;;;;;8.90;3.80;;;3.60;68.20;;;;;;5078452;28;20058;-78
2021/04/28 05:32:20;;;;;;;7.00;3.67;;;3.70;68.20;;;;;;5080157;28;20123;-79
2021/04/28 05:34:46;;;;;;;7.57;4.45;;;3.70;67.90;;;;;;5071781;28;20033;-80
2021/04/28 05:37:13;;;;;;;6.68;4.18;;;3.80;67.70;;;;;;5079107;28;20070;-78
2021/04/28 05:39:40;;;;;;;8.98;4.07;;;3.90;68.60;;;;;;5073321;28;20036;-77
2021/04/28 05:42:07;;;;;;;8.80;4.20;;;3.90;67.70;;;;;;5079232;28;20035;-77
2021/04/28 05:44:33;;;;;;;9.27;4.07;;;3.90;67.50;;;;;;5068153;28;20040;-79
2021/04/28 05:46:59;;;;;;;6.28;3.70;;;4.10;67.70;;;;;;5067326;28;20086;-78
2021/04/28 05:49:26;;;;;;;10.32;3.88;;;4.10;67.60;;;;;;5069614;28;20035;-78
2021/04/28 05:51:52;;;;;;;6.15;4.18;;;4.30;67.50;;;;;;5069026;28;20425;-77
2021/04/28 05:54:18;;;;;;;10.77;4.03;;;4.30;68.10;;;;;;5078579;28;20042;-78
2021/04/28 05:56:44;;;;;;;4.75;3.75;;;4.40;67.30;;;;;;5037324;28;20036;-79
2021/04/28 05:59:11;;;;;;;11.88;4.47;;;4.40;67.60;;;;;;5071866;28;20430;-78
2021/04/28 06:01:36;;;;;;;7.90;4.32;;;4.50;67.20;;;;;;5074131;28;20111;-78
2021/04/28 06:04:03;;;;;;;8.65;4.25;;;4.50;66.80;;;;;;5069705;28;20044;-79
2021/04/28 06:06:29;;;;;;;6.47;3.78;;;4.60;67.80;;;;;;5076424;28;20035;-78
2021/04/28 06:08:54;;;;;;;10.98;4.68;;;4.70;67.60;;;;;;5064418;28;20033;-79
2021/04/28 06:11:20;;;;;;;7.55;3.95;;;4.80;67.50;;;;;;5081727;28;20107;-79
2021/04/28 06:13:47;;;;;;;8.52;4.15;;;4.90;67.10;;;;;;5069444;28;20107;-80
2021/04/28 06:16:14;;;;;;;6.78;3.88;;;5.00;66.80;;;;;;5059534;28;20036;-77
2021/04/28 06:18:41;;;;;;;13.10;4.28;;;5.10;66.20;;;;;;5071100;28;20483;-79
2021/04/28 06:21:08;;;;;;;6.60;4.20;;;5.20;66.50;;;;;;5071154;28;20036;-77
2021/04/28 06:23:35;;;;;;;7.40;4.32;;;5.30;65.30;;;;;;5074650;28;20036;-80
2021/04/28 06:26:00;;;;;;;6.97;4.25;;;5.40;65.20;;;;;;5072909;28;20332;-79
2021/04/28 06:28:27;;;;;;;9.35;4.45;;;5.50;65.10;;;;;;5071461;28;20115;-77
2021/04/28 06:30:53;;;;;;;12.23;4.20;;;5.60;64.90;;;;;;5072469;28;20545;-80
2021/04/28 06:33:19;;;;;;;10.20;3.90;;;5.70;64.80;;;;;;5085250;28;20040;-80
2021/04/28 06:35:45;;;;;;;9.02;4.30;;;5.80;64.30;;;;;;5084700;28;20044;-78
2021/04/28 06:38:10;;;;;;;11.40;4.88;;;5.90;64.00;;;;;;5075986;28;20304;-80
2021/04/28 06:40:36;;;;;;;11.35;4.63;;;6.00;63.80;;;;;;5079513;28;20035;-79
2021/04/28 06:43:04;;;;;;;6.38;4.10;;;6.00;63.60;;;;;;5091335;28;20460;-77
2021/04/28 06:45:31;;;;;;;8.18;4.72;;;6.20;63.50;;;;;;5076370;28;20099;-79
2021/04/28 06:47:57;;;;;;;6.13;3.67;;;6.20;63.30;;;;;;5065044;28;20492;-78
2021/04/28 06:50:24;;;;;;;10.05;4.60;;;6.30;63.10;;;;;;5098632;27;20418;-80
2021/04/28 06:52:50;;;;;;;10.10;4.97;;;6.50;62.30;;;;;;5063200;28;20153;-80
2021/04/28 06:55:16;;;;;;;13.80;5.03;;;6.60;61.80;;;;;;5068174;28;20540;-80
2021/04/28 06:57:43;;;;;;;12.68;4.75;;;6.70;61.50;;;;;;5066745;28;20714;-80
2021/04/28 07:00:09;;;;;;;11.07;5.15;;;6.80;61.70;;;;;;5050085;28;20035;-77
2021/04/28 07:02:35;;;;;;;16.73;5.28;;;6.90;61.20;;;;;;5060840;28;20457;-77
2021/04/28 07:05:00;;;;;;;25.27;5.85;;;7.10;60.10;;;;;;5085420;27;20035;-78
2021/04/28 07:07:26;;;;;;;22.42;5.70;;;7.20;59.20;;;;;;5072653;28;20028;-79
2021/04/28 07:09:52;;;;;;;10.35;4.57;;;7.30;59.00;;;;;;5079922;28;20478;-79
2021/04/28 07:12:18;;;;;;;13.30;5.03;;;7.50;59.20;;;;;;5071707;28;20039;-80
2021/04/28 07:14:46;;;;;;;15.63;4.85;;;7.60;58.10;;;;;;5087319;28;20043;-79
2021/04/28 07:17:12;;;;;;;12.55;5.00;;;7.70;58.50;;;;;;5067400;28;20051;-80
2021/04/28 07:19:38;;;;;;;8.57;4.47;;;7.80;57.70;;;;;;5069124;28;20036;-80
2021/04/28 07:22:05;;;;;;;6.22;4.72;;;8.00;57.80;;;;;;5077646;28;20067;-78
2021/04/28 07:24:31;;;;;;;9.77;4.65;;;8.10;56.70;;;;;;5052164;28;20044;-80
2021/04/28 07:26:59;;;;;;;9.02;4.57;;;8.20;56.90;;;;;;5066213;28;20043;-78
2021/04/28 07:29:25;;;;;;;7.30;4.78;;;8.30;57.10;;;;;;5071945;28;20094;-78
2021/04/28 07:31:51;;;;;;;7.60;4.72;;;8.50;56.50;;;;;;5056106;28;20557;-78
2021/04/28 07:34:16;;;;;;;7.88;4.80;;;8.60;56.30;;;;;;5075029;28;20063;-78
2021/04/28 07:36:43;;;;;;;8.90;4.78;;;8.70;55.80;;;;;;5074416;28;20059;-79
2021/04/28 07:39:10;;;;;;;10.02;5.40;;;8.80;55.30;;;;;;5081082;28;20115;-81
2021/04/28 07:41:37;;;;;;;11.93;4.95;;;8.90;54.80;;;;;;5102690;27;20032;-79
2021/04/28 07:44:03;;;;;;;6.43;4.85;;;9.10;54.10;;;;;;5073042;28;20059;-78
2021/04/28 07:46:29;;;;;;;9.38;5.25;;;9.20;54.10;;;;;;5080596;28;20066;-80
2021/04/28 07:48:54;;;;;;;10.65;4.93;;;9.30;54.40;;;;;;5077196;28;20311;-78
2021/04/28 07:51:20;;;;;;;8.45;4.75;;;9.50;53.30;;;;;;5082512;27;20455;-81
2021/04/28 07:53:46;;;;;;;12.77;4.68;;;9.50;53.10;;;;;;5057259;28;20035;-81
2021/04/28 07:56:12;;;;;;;15.27;4.90;;;9.60;52.90;;;;;;5107463;27;20086;-80
2021/04/28 07:58:39;;;;;;;16.35;5.88;;;9.70;52.90;;;;;;5070167;28;20047;-80
2021/04/28 08:01:04;;;;;;;9.82;5.18;;;9.80;53.00;;;;;;5049474;28;21160;-79
2021/04/28 08:03:30;;;;;;;8.63;4.63;;;10.00;52.80;;;;;;5071597;28;20044;-80
2021/04/28 08:05:56;;;;;;;10.60;5.07;;;10.10;52.80;;;;;;5075248;28;20075;-80
2021/04/28 08:08:22;;;;;;;10.77;5.40;;;10.20;52.30;;;;;;5077604;28;20039;-81
2021/04/28 08:10:48;;;;;;;10.57;5.38;;;10.30;51.50;;;;;;5077462;28;20121;-81
2021/04/28 08:13:13;;;;;;;7.90;5.10;;;10.40;51.90;;;;;;5073256;28;20032;-79
2021/04/28 08:15:40;;;;;;;7.65;4.82;;;10.50;51.50;;;;;;5083203;28;20083;-80
2021/04/28 08:18:06;;;;;;;11.25;5.47;;;10.60;51.10;;;;;;5068931;28;20585;-78
2021/04/28 08:20:33;;;;;;;8.73;5.25;;;10.80;50.80;;;;;;5075491;28;20051;-79
2021/04/28 08:22:59;;;;;;;11.65;5.43;;;10.90;49.80;;;;;;5110122;27;20036;-80
2021/04/28 08:25:25;;;;;;;8.18;5.35;;;11.00;50.30;;;;;;5046181;28;20102;-80
2021/04/28 08:27:51;;;;;;;9.85;5.78;;;11.10;49.90;;;;;;5065400;28;20036;-78
2021/04/28 08:30:17;;;;;;;7.93;5.07;;;11.20;49.20;;;;;;5090025;28;20735;-79
2021/04/28 08:32:43;;;;;;;10.30;6.35;;;11.30;49.40;;;;;;5079351;28;20462;-82
2021/04/28 08:35:14;;;;;;;10.15;5.70;;;11.40;49.10;;;;;;5064442;28;20044;-80
2021/04/28 08:37:41;;;;;;;12.65;5.38;;;11.40;49.20;;;;;;5075512;28;20104;-79
2021/04/28 08:40:07;;;;;;;10.80;5.78;;;11.50;48.20;;;;;;5080437;28;20028;-79
2021/04/28 08:42:34;;;;;;;10.85;5.57;;;11.60;47.60;;;;;;5077598;28;20039;-80
2021/04/28 08:45:00;;;;;;;10.57;5.45;;;11.60;47.90;;;;;;5078163;28;20068;-82
2021/04/28 08:47:26;;;;;;;12.65;5.43;;;11.70;48.20;;;;;;5074328;28;20071;-79
2021/04/28 08:49:52;;;;;;;9.80;5.43;;;11.90;47.70;;;;;;5064122;28;20056;-81
2021/04/28 08:52:18;;;;;;;10.00;5.30;;;12.00;47.90;;;;;;5076587;28;20028;-79
2021/04/28 08:54:45;;;;;;;10.70;5.60;;;12.20;48.30;;;;;;5075802;28;20482;-78
2021/04/28 08:57:11;;;;;;;6.88;4.90;;;12.30;47.00;;;;;;5077407;28;20127;-81
2021/04/28 08:59:37;;;;;;;10.25;5.03;;;12.50;46.60;;;;;;5095131;28;20119;-77
2021/04/28 09:02:13;;;;;;;9.77;5.07;;;12.60;46.80;;;;;;5057936;28;20037;-80
2021/04/28 09:04:39;;;;;;;11.25;5.20;;;12.80;46.00;;;;;;5075331;28;20035;-81
2021/04/28 09:07:05;;;;;;;14.15;5.40;;;12.90;45.30;;;;;;5083809;28;20376;-79
2021/04/28 09:09:30;;;;;;;7.63;5.63;;;13.00;45.00;;;;;;5087217;27;20044;-78
2021/04/28 09:11:58;;;;;;;11.43;5.55;;;13.10;44.00;;;;;;5072443;28;20036;-79
2021/04/28 09:14:30;;;;;;;9.38;5.25;;;13.10;44.80;;;;;;5064187;28;20417;-80
2021/04/28 09:17:00;;;;;;;7.30;4.97;;;13.30;44.40;;;;;;5066519;28;20038;-77
2021/04/28 09:19:32;;;;;;;9.15;5.38;;;13.40;43.60;;;;;;5073045;28;20036;-80
2021/04/28 09:22:04;;;;;;;10.88;5.35;;;13.50;42.90;;;;;;5078505;28;20228;-81
2021/04/28 09:24:33;;;;;;;10.25;5.50;;;13.60;42.60;;;;;;5076116;28;20044;-80
2021/04/28 09:26:59;;;;;;;12.95;5.50;;;13.60;43.10;;;;;;5061509;28;20040;-79
2021/04/28 09:29:34;;;;;;;12.35;6.03;;;13.70;42.70;;;;;;5075551;28;20035;-78
2021/04/28 09:32:07;;;;;;;8.77;5.40;;;13.80;40.90;;;;;;5069769;28;20063;-78
2021/04/28 09:34:36;;;;;;;10.30;5.80;;;13.80;40.80;;;;;;5076875;28;20028;-78
2021/04/28 09:37:12;;;;;;;8.43;5.53;;;13.80;39.90;;;;;;5081041;28;20043;-77
2021/04/28 09:39:42;;;;;;;9.95;5.28;;;13.70;39.90;;;;;;5076655;28;20032;-80
2021/04/28 09:42:08;;;;;;;7.57;5.40;;;13.80;40.90;;;;;;5072968;28;20471;-79
2021/04/28 09:44:37;;;;;;;9.70;5.80;;;13.90;40.90;;;;;;5081332;28;20097;-80
2021/04/28 09:47:15;;;;;;;13.43;5.72;;;14.10;40.80;;;;;;5088181;28;20029;-79
2021/04/28 09:50:01;;;;;;;13.07;6.07;;;14.20;40.00;;;;;;5072531;28;20032;-78
2021/04/28 09:52:30;;;;;;;12.07;5.78;;;14.20;40.40;;;;;;5078783;28;20546;-80
2021/04/28 09:55:15;;;;;;;21.63;6.03;;;14.30;40.30;;;;;;5086837;28;20063;-79
2021/04/28 09:57:50;;;;;;;10.20;6.00;;;14.40;38.20;;;;;;5057757;28;20036;-80
2021/04/28 10:00:27;;;;;;;12.48;5.78;;;14.30;39.10;;;;;;5076280;28;20127;-80
2021/04/28 10:03:03;;;;;;;9.68;6.22;;;14.30;38.30;;;;;;5052598;28;21856;-80
2021/04/28 10:05:37;;;;;;;9.07;6.18;;;14.30;38.80;;;;;;5074223;28;20064;-80
2021/04/28 10:08:11;;;;;;;14.75;7.22;;;14.40;38.40;;;;;;5074335;28;20091;-81
2021/04/28 10:10:38;;;;;;;11.02;6.35;;;14.40;37.70;;;;;;5077831;28;20494;-79
2021/04/28 10:13:05;;;;;;;12.40;6.60;;;14.50;38.90;;;;;;5078546;28;20105;-78
2021/04/28 10:15:31;;;;;;;15.20;6.75;;;14.60;39.20;;;;;;5079882;28;20032;-78
2021/04/28 10:18:01;;;;;;;10.02;6.22;;;14.80;38.70;;;;;;5075241;28;20029;-78
2021/04/28 10:20:30;;;;;;;11.40;7.00;;;14.90;39.20;;;;;;5073125;28;20415;-78
2021/04/28 10:22:56;;;;;;;11.75;6.78;;;15.10;38.20;;;;;;5085899;28;20333;-80
2021/04/28 10:25:22;;;;;;;11.27;6.80;;;15.30;39.00;;;;;;5068070;28;20047;-79
2021/04/28 10:27:49;;;;;;;15.90;7.47;;;15.40;37.70;;;;;;5090817;28;20039;-80
2021/04/28 10:30:16;;;;;;;16.45;7.03;;;15.60;37.00;;;;;;5070040;28;20076;-78
2021/04/28 10:32:43;;;;;;;14.65;6.68;;;15.50;37.10;;;;;;5064795;28;20067;-79
2021/04/28 10:35:13;;;;;;;9.20;7.10;;;15.60;37.40;;;;;;5073666;28;20059;-80
2021/04/28 10:37:41;;;;;;;14.25;7.28;;;15.80;38.60;;;;;;5079154;28;20032;-79
2021/04/28 10:40:11;;;;;;;12.98;7.20;;;15.90;37.70;;;;;;5080812;28;20661;-80
2021/04/28 10:42:39;;;;;;;10.82;7.38;;;16.00;37.50;;;;;;5064641;28;20036;-80
2021/04/28 10:45:09;;;;;;;10.88;7.80;;;16.10;36.40;;;;;;5078620;28;20032;-78
2021/04/28 10:47:46;;;;;;;14.90;7.70;;;16.20;37.10;;;;;;5082158;28;20447;-80
2021/04/28 10:50:21;;;;;;;12.38;7.78;;;16.30;36.00;;;;;;5091913;27;20046;-79
2021/04/28 10:52:57;;;;;;;15.25;8.07;;;16.30;34.90;;;;;;5081029;28;20545;-78
2021/04/28 10:55:54;;;;;;;15.52;7.43;;;16.30;35.10;;;;;;5084408;28;20051;-80
2021/04/28 10:58:27;;;;;;;10.13;7.55;;;16.30;36.80;;;;;;5081054;28;20760;-79
2021/04/28 11:01:05;;;;;;;11.13;7.93;;;16.40;35.90;;;;;;5077398;28;20502;-77
2021/04/28 11:03:33;;;;;;;8.95;7.18;;;16.30;33.30;;;;;;5077381;28;20043;-80
2021/04/28 11:06:20;;;;;;;13.00;7.53;;;16.30;35.40;;;;;;5082255;28;20032;-78
2021/04/28 11:08:57;;;;;;;8.98;7.35;;;16.50;36.20;;;;;;5079114;28;20453;-79
2021/04/28 11:11:32;;;;;;;11.90;7.38;;;16.70;36.20;;;;;;5111872;27;20049;-78
2021/04/28 11:14:20;;;;;;;12.43;8.05;;;16.70;32.60;;;;;;5076102;28;20197;-80
2021/04/28 11:16:55;;;;;;;14.63;7.82;;;16.50;33.10;;;;;;5084832;28;20063;-80
2021/04/28 11:19:29;;;;;;;12.18;7.75;;;16.50;34.50;;;;;;5069421;28;20036;-79
2021/04/28 11:22:11;;;;;;;13.18;7.70;;;16.60;34.50;;;;;;5075433;28;20089;-77
2021/04/28 11:24:59;;;;;;;12.87;8.40;;;16.60;32.30;;;;;;5074596;28;20123;-79
2021/04/28 11:27:58;;;;;;;14.38;8.23;;;16.50;32.60;;;;;;5088061;27;20040;-77
2021/04/28 11:30:28;;;;;;;37.15;10.05;;;16.50;32.80;;;;;;5082418;28;20123;-81
2021/04/28 11:33:13;;;;;;;11.82;8.40;;;16.50;33.70;;;;;;5086849;28;20035;-80
2021/04/28 11:35:45;;;;;;;13.63;9.10;;;16.60;35.00;;;;;;5087171;28;20090;-79
2021/04/28 11:38:17;;;;;;;11.45;8.65;;;16.70;34.60;;;;;;5073635;28;20318;-80
2021/04/28 11:41:03;;;;;;;13.73;8.80;;;16.90;34.00;;;;;;5079193;28;20067;-80
2021/04/28 11:43:32;;;;;;;12.18;8.02;;;17.00;34.70;;;;;;5076675;28;20074;-79
2021/04/28 11:46:05;;;;;;;13.48;8.57;;;17.10;34.60;;;;;;5083378;28;20041;-78
2021/04/28 11:48:32;;;;;;;14.45;9.05;;;17.30;34.60;;;;;;5109234;27;20043;-79
2021/04/28 11:51:00;;;;;;;17.33;8.95;;;17.40;34.70;;;;;;5068243;28;20039;-81
2021/04/28 11:53:27;;;;;;;15.52;9.20;;;17.60;34.80;;;;;;5077993;28;20158;-83
2021/04/28 11:55:53;;;;;;;17.67;8.95;;;17.80;34.70;;;;;;5078509;28;20032;-80
2021/04/28 11:58:20;;;;;;;14.20;9.07;;;17.90;33.90;;;;;;5079949;28;20106;-78
2021/04/28 12:00:46;;;;;;;14.68;8.95;;;18.10;33.50;;;;;;5106788;27;20127;-79
2021/04/28 12:03:12;;;;;;;20.15;8.68;;;18.10;33.60;;;;;;5090513;28;20429;-81
2021/04/28 12:05:38;;;;;;;12.30;9.30;;;18.20;34.10;;;;;;5077944;28;20039;-78
2021/04/28 12:08:04;;;;;;;14.88;9.20;;;18.30;32.80;;;;;;5076030;28;20774;-80
2021/04/28 12:10:30;;;;;;;14.27;9.20;;;18.40;33.20;;;;;;5080345;28;20028;-81
2021/04/28 12:12:56;;;;;;;16.33;9.77;;;18.50;33.20;;;;;;5083308;28;20028;-81
2021/04/28 12:15:22;;;;;;;18.48;9.57;;;18.60;32.60;;;;;;5070271;28;20056;-81
2021/04/28 12:17:49;;;;;;;12.75;9.57;;;18.60;33.00;;;;;;5077560;28;20283;-81
2021/04/28 12:20:22;;;;;;;13.63;9.55;;;18.80;32.10;;;;;;5081575;28;20250;-82
2021/04/28 12:22:49;;;;;;;11.52;9.32;;;18.90;32.30;;;;;;5077162;28;20037;-81
2021/04/28 12:25:17;;;;;;;13.38;9.93;;;19.00;32.20;;;;;;5081099;28;20295;-79
2021/04/28 12:27:44;;;;;;;13.05;9.70;;;19.20;31.90;;;;;;5080993;28;20043;-82
2021/04/28 12:30:15;;;;;;;18.38;10.73;;;19.00;30.90;;;;;;5074115;28;20066;-82
2021/04/28 12:32:46;;;;;;;16.15;9.60;;;18.80;30.80;;;;;;5080344;28;20184;-81
2021/04/28 12:35:21;;;;;;;13.25;9.60;;;18.60;30.80;;;;;;5078584;28;20044;-79
2021/04/28 12:38:00;;;;;;;15.77;9.70;;;18.40;30.80;;;;;;5079263;28;20063;-82
2021/04/28 12:40:52;;;;;;;12.65;9.35;;;18.50;33.10;;;;;;5086225;28;20032;-82
2021/04/28 12:43:32;;;;;;;14.60;9.80;;;18.70;33.30;;;;;;5078464;28;20483;-83
2021/04/28 12:46:06;;;;;;;14.15;9.55;;;19.00;32.70;;;;;;5078657;28;20287;-82
2021/04/28 12:49:11;;;;;;;15.75;9.35;;;19.10;31.20;;;;;;5074516;28;20055;-82
2021/04/28 12:51:51;;;;;;;13.35;9.75;;;19.20;32.10;;;;;;5045652;28;20040;-80
2021/04/28 12:54:34;;;;;;;19.05;10.68;;;19.30;31.90;;;;;;5029763;28;20162;-80